createdAt,value
2022-09-01T00:01:55.932Z,3.00
2022-09-01T00:04:38.935Z,3.00
2022-09-01T00:07:30.273Z,2.88
2022-09-01T00:10:14.739Z,3.08
2022-09-01T00:13:02.743Z,3.28
2022-09-01T00:15:45.138Z,3.80
2022-09-01T00:18:32.696Z,3.20
2022-09-01T00:21:15.887Z,3.13
2022-09-01T00:24:03.706Z,3.03
2022-09-01T00:26:52.674Z,2.95
2022-09-01T00:29:34.471Z,2.97
2022-09-01T00:32:23.681Z,3.25
2022-09-01T00:35:06.197Z,3.25
2022-09-01T00:37:55.699Z,3.38
2022-09-01T00:40:39.925Z,2.80
2022-09-01T00:43:29.710Z,3.00
2022-09-01T00:46:21.990Z,3.10
2022-09-01T00:49:06.983Z,2.80
2022-09-01T00:52:06.732Z,2.47
2022-09-01T00:54:52.836Z,3.10
2022-09-01T00:57:41.650Z,2.78
2022-09-01T01:00:33.629Z,3.08
2022-09-01T01:03:22.730Z,2.80
2022-09-01T01:06:14.615Z,3.00
2022-09-01T01:09:06.644Z,2.97
2022-09-01T01:11:56.613Z,3.97
2022-09-01T01:14:46.604Z,2.40
2022-09-01T01:17:29.818Z,2.30
2022-09-01T01:20:39.598Z,2.42
2022-09-01T01:23:37.743Z,2.58
2022-09-01T01:26:28.543Z,2.78
2022-09-01T01:29:10.603Z,3.22
2022-09-01T01:31:53.985Z,2.83
2022-09-01T01:34:41.613Z,2.72
2022-09-01T01:37:30.812Z,3.08
2022-09-01T01:40:21.596Z,2.30
2022-09-01T01:43:11.593Z,2.47
2022-09-01T01:45:53.224Z,2.72
2022-09-01T01:48:47.590Z,2.22
2022-09-01T01:51:39.557Z,2.67
2022-09-01T01:54:38.590Z,2.80
2022-09-01T01:57:31.976Z,3.10
2022-09-01T02:00:17.542Z,2.70
2022-09-01T02:03:14.620Z,2.60
2022-09-01T02:06:11.637Z,2.40
2022-09-01T02:09:03.837Z,2.92
2022-09-01T02:11:45.748Z,3.13
2022-09-01T02:14:33.647Z,3.60
2022-09-01T02:17:16.748Z,2.40
2022-09-01T02:20:04.649Z,2.88
2022-09-01T02:22:45.911Z,2.92
2022-09-01T02:25:34.504Z,2.92
2022-09-01T02:28:17.262Z,1.98
2022-09-01T02:31:06.593Z,3.40
2022-09-01T02:33:50.005Z,2.70
2022-09-01T02:36:39.491Z,2.53
2022-09-01T02:39:22.437Z,3.05
2022-09-01T02:42:11.494Z,3.25
2022-09-01T02:44:52.916Z,2.95
2022-09-01T02:47:40.483Z,2.72
2022-09-01T02:50:25.315Z,2.70
2022-09-01T02:53:16.589Z,2.85
2022-09-01T02:56:09.515Z,2.55
2022-09-01T02:58:53.451Z,3.05
2022-09-01T03:01:41.538Z,2.42
2022-09-01T03:04:24.820Z,3.10
2022-09-01T03:07:15.452Z,2.80
2022-09-01T03:09:56.675Z,3.20
2022-09-01T03:12:44.553Z,2.15
2022-09-01T03:15:29.660Z,2.75
2022-09-01T03:18:20.677Z,3.63
2022-09-01T03:21:02.424Z,2.38
2022-09-01T03:23:53.474Z,2.88
2022-09-01T03:26:36.659Z,2.33
2022-09-01T03:29:25.501Z,2.92
2022-09-01T03:32:06.693Z,3.00
2022-09-01T03:34:54.533Z,2.55
2022-09-01T03:37:36.362Z,2.78
2022-09-01T03:43:10.387Z,2.60
2022-09-01T03:46:00.643Z,3.35
2022-09-01T03:48:41.621Z,3.03
2022-09-01T03:51:31.393Z,3.28
2022-09-01T03:54:13.617Z,2.55
2022-09-01T03:57:06.364Z,3.28
2022-09-01T03:59:55.691Z,2.45
2022-09-01T04:02:37.144Z,2.97
2022-09-01T04:05:26.406Z,2.70
2022-09-01T04:08:18.702Z,4.50
2022-09-01T04:11:02.889Z,3.75
2022-09-01T04:13:54.534Z,2.80
2022-09-01T04:17:02.398Z,3.10
2022-09-01T04:19:51.538Z,2.80
2022-09-01T04:22:34.753Z,3.28
2022-09-01T04:25:23.375Z,2.97
2022-09-01T04:28:12.982Z,2.67
2022-09-01T04:31:04.375Z,2.60
2022-09-01T04:33:47.058Z,3.65
2022-09-01T04:36:40.313Z,2.75
2022-09-01T04:42:13.356Z,2.90
2022-09-01T04:44:54.790Z,2.67
2022-09-01T04:47:48.462Z,2.95
2022-09-01T04:50:30.871Z,2.95
2022-09-01T04:53:31.316Z,2.65
2022-09-01T04:56:14.410Z,3.70
2022-09-01T04:59:13.313Z,3.33
2022-09-01T05:02:00.765Z,3.80
2022-09-01T05:04:53.369Z,3.20
2022-09-01T05:07:44.273Z,3.97
2022-09-01T05:10:37.971Z,4.10
2022-09-01T05:13:27.266Z,3.85
2022-09-01T05:16:13.458Z,3.30
2022-09-01T05:19:03.277Z,3.45
2022-09-01T05:21:48.641Z,3.13
2022-09-01T05:24:41.778Z,3.42
2022-09-01T05:27:30.275Z,3.45
2022-09-01T05:30:12.478Z,3.13
2022-09-01T05:33:01.799Z,3.40
2022-09-01T05:35:45.192Z,3.92
2022-09-01T05:38:38.307Z,2.88
2022-09-01T05:41:30.233Z,3.95
2022-09-01T05:44:20.294Z,2.80
2022-09-01T05:47:09.708Z,3.03
2022-09-01T05:50:03.341Z,3.15
2022-09-01T05:52:48.960Z,3.95
2022-09-01T05:55:44.282Z,3.03
2022-09-01T06:01:40.323Z,3.03
2022-09-01T06:04:30.419Z,3.33
2022-09-01T06:07:16.471Z,2.90
2022-09-01T06:10:02.036Z,3.03
2022-09-01T06:12:53.985Z,3.20
2022-09-01T06:15:44.285Z,3.00
2022-09-01T06:18:26.191Z,3.10
2022-09-01T06:21:14.868Z,3.80
2022-09-01T06:23:58.196Z,3.17
2022-09-01T06:26:46.948Z,3.00
2022-09-01T06:29:30.203Z,3.05
2022-09-01T06:32:19.564Z,3.53
2022-09-01T06:35:04.164Z,3.38
2022-09-01T06:37:55.242Z,2.33
2022-09-01T06:41:12.936Z,2.58
2022-09-01T06:44:02.170Z,3.38
2022-09-01T06:46:45.377Z,3.20
2022-09-01T06:49:39.162Z,3.03
2022-09-01T06:52:28.141Z,2.75
2022-09-01T06:55:18.145Z,3.35
2022-09-01T06:58:07.104Z,2.95
2022-09-01T07:00:56.132Z,2.88
2022-09-01T07:03:40.489Z,3.25
2022-09-01T07:07:00.382Z,3.33
2022-09-01T07:10:18.315Z,3.13
2022-09-01T07:13:07.339Z,2.92
2022-09-01T07:19:13.661Z,3.88
2022-09-01T07:22:09.690Z,3.45
2022-09-01T07:25:11.469Z,3.38
2022-09-01T07:28:37.329Z,3.00
2022-09-01T07:34:40.391Z,2.63
2022-09-01T07:44:03.082Z,3.42
2022-09-01T07:47:51.815Z,3.75
2022-09-01T07:50:40.169Z,2.88
2022-09-01T07:53:22.633Z,2.80
2022-09-01T07:56:16.052Z,3.38
2022-09-01T07:58:59.614Z,3.13
2022-09-01T08:01:50.223Z,3.45
2022-09-01T08:04:31.753Z,2.92
2022-09-01T08:07:21.063Z,2.88
2022-09-01T08:10:02.258Z,2.70
2022-09-01T08:12:57.257Z,3.33
2022-09-01T08:15:41.375Z,2.95
2022-09-01T08:18:48.769Z,3.63
2022-09-01T08:21:49.435Z,3.35
2022-09-01T08:24:30.365Z,3.30
2022-09-01T08:26:59.867Z,3.55
2022-09-01T08:29:28.621Z,4.20
2022-09-01T08:31:59.287Z,3.45
2022-09-01T08:34:27.722Z,2.97
2022-09-01T08:36:56.151Z,2.72
2022-09-01T08:39:24.453Z,3.20
2022-09-01T08:42:05.477Z,3.45
2022-09-01T08:44:47.139Z,3.78
2022-09-01T08:47:28.736Z,4.53
2022-09-01T08:50:01.734Z,2.78
2022-09-01T08:53:09.183Z,3.40
2022-09-01T08:55:43.296Z,3.58
2022-09-01T08:58:17.242Z,4.38
2022-09-01T09:00:55.891Z,4.00
2022-09-01T09:03:42.058Z,3.53
2022-09-01T09:06:18.794Z,3.40
2022-09-01T09:08:54.545Z,3.20
2022-09-01T09:11:46.938Z,4.03
2022-09-01T09:14:38.371Z,4.22
2022-09-01T09:17:06.988Z,4.03
2022-09-01T09:19:38.163Z,4.32
2022-09-01T09:22:11.335Z,4.20
2022-09-01T09:24:51.197Z,4.22
2022-09-01T09:27:21.825Z,4.30
2022-09-01T09:29:53.679Z,3.95
2022-09-01T09:32:31.579Z,4.05
2022-09-01T09:35:24.484Z,4.13
2022-09-01T09:37:53.536Z,4.60
2022-09-01T09:40:23.409Z,4.22
2022-09-01T09:43:08.603Z,4.63
2022-09-01T09:45:42.053Z,4.05
2022-09-01T09:48:28.876Z,4.07
2022-09-01T09:50:57.279Z,4.35
2022-09-01T09:53:29.998Z,4.60
2022-09-01T09:56:01.842Z,3.78
2022-09-01T10:01:11.294Z,3.83
2022-09-01T10:03:43.680Z,4.03
2022-09-01T10:06:31.629Z,4.38
2022-09-01T10:09:01.350Z,4.13
2022-09-01T10:11:35.567Z,3.13
2022-09-01T10:14:08.829Z,3.50
2022-09-01T10:16:44.937Z,3.47
2022-09-01T10:19:17.142Z,3.50
2022-09-01T10:21:47.416Z,4.00
2022-09-01T10:24:27.067Z,3.72
2022-09-01T10:27:02.582Z,4.43
2022-09-01T10:29:47.118Z,3.75
2022-09-01T10:32:34.982Z,3.60
2022-09-01T10:35:06.083Z,3.45
2022-09-01T10:37:35.989Z,3.17
2022-09-01T10:40:35.369Z,3.28
2022-09-01T10:43:41.183Z,3.40
2022-09-01T10:46:50.388Z,3.55
2022-09-01T10:49:46.477Z,3.00
2022-09-01T10:52:58.906Z,3.13
2022-09-01T10:55:33.937Z,4.15
2022-09-01T11:01:15.621Z,3.92
2022-09-01T11:03:57.136Z,3.70
2022-09-01T11:09:48.471Z,4.18
2022-09-01T11:12:41.988Z,5.57
2022-09-01T11:15:36.935Z,3.30
2022-09-01T11:18:11.990Z,4.28
2022-09-01T11:20:42.815Z,4.30
2022-09-01T11:25:48.576Z,3.47
2022-09-01T11:28:45.205Z,3.58
2022-09-01T11:31:21.918Z,9.23
2022-09-01T11:34:15.256Z,3.30
2022-09-01T11:36:55.880Z,11.07
2022-09-01T11:39:49.596Z,4.38
2022-09-01T11:42:22.852Z,3.25
2022-09-01T11:44:57.792Z,2.70
2022-09-01T11:47:30.321Z,3.00
2022-09-01T11:50:00.984Z,2.72
2022-09-01T11:52:31.977Z,2.72
2022-09-01T11:55:01.106Z,2.50
2022-09-01T11:57:34.642Z,3.33
2022-09-01T12:00:06.112Z,2.83
2022-09-01T12:02:45.543Z,2.10
2022-09-01T12:05:28.966Z,2.10
2022-09-01T12:07:57.886Z,2.75
2022-09-01T12:10:32.777Z,2.60
2022-09-01T12:13:08.138Z,2.25
2022-09-01T12:15:54.943Z,2.22
2022-09-01T12:18:31.619Z,2.58
2022-09-01T12:21:02.312Z,2.40
2022-09-01T12:23:34.465Z,3.00
2022-09-01T12:26:06.530Z,2.33
2022-09-01T12:28:41.744Z,3.13
2022-09-01T12:31:16.372Z,3.08
2022-09-01T12:33:45.454Z,3.70
2022-09-01T12:36:23.071Z,2.92
2022-09-01T12:38:51.924Z,2.58
2022-09-01T12:41:36.030Z,2.88
2022-09-01T12:44:34.526Z,2.90
2022-09-01T12:47:06.908Z,2.75
2022-09-01T12:49:47.869Z,2.90
2022-09-01T12:52:26.642Z,3.90
2022-09-01T12:55:47.362Z,3.13
2022-09-01T12:58:06.089Z,2.95
2022-09-01T13:00:37.984Z,2.58
2022-09-01T13:03:13.473Z,2.80
2022-09-01T13:05:43.382Z,2.33
2022-09-01T13:08:13.845Z,2.47
2022-09-01T13:10:44.691Z,2.58
2022-09-01T13:13:14.379Z,3.10
2022-09-01T13:15:48.289Z,2.53
2022-09-01T13:18:16.747Z,2.88
2022-09-01T13:20:45.404Z,2.58
2022-09-01T13:23:13.819Z,2.95
2022-09-01T13:25:44.425Z,2.63
2022-09-01T13:28:13.371Z,2.53
2022-09-01T13:30:44.470Z,2.45
2022-09-01T13:33:20.898Z,2.33
2022-09-01T13:35:52.540Z,2.20
2022-09-01T13:38:21.058Z,2.28
2022-09-01T13:40:51.077Z,3.22
2022-09-01T13:43:22.267Z,3.30
2022-09-01T13:45:52.630Z,2.88
2022-09-01T13:48:21.238Z,2.78
2022-09-01T13:53:41.018Z,3.65
2022-09-01T13:56:09.477Z,3.45
2022-09-01T13:58:37.650Z,3.03
2022-09-01T14:01:07.834Z,3.38
2022-09-01T14:03:37.055Z,2.97
2022-09-01T14:06:07.112Z,3.08
2022-09-01T14:08:35.332Z,3.63
2022-09-01T14:11:03.979Z,4.07
2022-09-01T14:13:32.945Z,3.70
2022-09-01T14:16:02.239Z,3.58
2022-09-01T14:18:36.885Z,3.90
2022-09-01T14:21:05.920Z,3.10
2022-09-01T14:23:34.121Z,4.43
2022-09-01T14:26:02.449Z,4.70
2022-09-01T14:28:30.938Z,3.65
2022-09-01T14:33:27.430Z,3.85
2022-09-01T14:35:57.128Z,3.90
2022-09-01T14:38:25.562Z,3.50
2022-09-01T14:40:53.809Z,3.72
2022-09-01T14:43:23.045Z,4.45
2022-09-01T14:45:52.017Z,2.85
2022-09-01T14:48:20.920Z,2.40
2022-09-01T14:50:50.968Z,2.70
2022-09-01T14:53:22.713Z,2.90
2022-09-01T14:55:55.561Z,2.38
2022-09-01T14:58:25.352Z,2.50
2022-09-01T15:01:00.410Z,3.03
2022-09-01T15:06:03.977Z,2.22
2022-09-01T15:08:33.681Z,2.05
2022-09-01T15:11:02.635Z,2.05
2022-09-01T15:13:30.860Z,2.75
2022-09-01T15:15:59.173Z,2.60
2022-09-01T15:18:27.436Z,2.35
2022-09-01T15:20:55.714Z,2.58
2022-09-01T15:23:26.689Z,3.17
2022-09-01T15:25:57.883Z,2.80
2022-09-01T15:28:26.911Z,2.67
2022-09-01T15:30:57.080Z,3.30
2022-09-01T15:33:25.347Z,2.88
2022-09-01T15:35:53.895Z,3.63
2022-09-01T15:38:26.117Z,3.60
2022-09-01T15:41:00.476Z,3.63
2022-09-01T15:43:29.474Z,3.17
2022-09-01T15:45:59.333Z,3.80
2022-09-01T15:48:28.521Z,4.63
2022-09-01T15:51:16.330Z,4.75
2022-09-01T15:53:44.726Z,4.50
2022-09-01T15:56:14.665Z,3.97
2022-09-01T15:59:00.191Z,3.88
2022-09-01T16:01:32.441Z,3.25
2022-09-01T16:04:01.290Z,3.08
2022-09-01T16:06:29.774Z,2.70
2022-09-01T16:08:58.254Z,2.33
2022-09-01T16:11:28.365Z,1.88
2022-09-01T16:13:58.286Z,1.85
2022-09-01T16:16:45.283Z,1.48
2022-09-01T16:19:25.386Z,1.17
2022-09-01T16:22:00.055Z,1.20
2022-09-01T16:24:28.721Z,1.33
2022-09-01T16:26:58.886Z,1.40
2022-09-01T16:29:35.898Z,1.40
2022-09-01T16:32:04.511Z,1.73
2022-09-01T16:34:34.759Z,1.40
2022-09-01T16:37:07.564Z,1.25
2022-09-01T16:39:47.003Z,1.10
2022-09-01T16:42:26.323Z,0.55
2022-09-01T16:45:03.660Z,0.70
2022-09-01T16:47:55.911Z,0.60
2022-09-01T16:50:36.933Z,0.50
2022-09-01T16:53:15.927Z,0.50
2022-09-01T16:55:58.737Z,0.50
2022-09-01T16:58:41.329Z,0.75
2022-09-01T17:01:19.898Z,0.40
2022-09-01T17:03:57.403Z,0.50
2022-09-01T17:06:31.996Z,0.60
2022-09-01T17:09:11.491Z,0.47
2022-09-01T17:11:49.461Z,0.38
2022-09-01T17:14:27.785Z,0.50
2022-09-01T17:17:06.546Z,0.60
2022-09-01T17:19:35.430Z,0.55
2022-09-01T17:22:06.478Z,0.93
2022-09-01T17:24:40.977Z,0.80
2022-09-01T17:27:15.314Z,0.57
2022-09-01T17:29:48.144Z,0.77
2022-09-01T17:32:31.042Z,0.90
2022-09-01T17:35:11.460Z,0.60
2022-09-01T17:37:46.659Z,0.77
2022-09-01T17:40:23.364Z,0.60
2022-09-01T17:43:02.355Z,0.52
2022-09-01T17:45:39.169Z,0.68
2022-09-01T17:48:15.407Z,0.70
2022-09-01T17:50:59.454Z,0.43
2022-09-01T17:53:39.164Z,0.50
2022-09-01T17:56:16.305Z,0.70
2022-09-01T17:58:53.634Z,0.50
2022-09-01T18:01:29.320Z,0.50
2022-09-01T18:04:25.742Z,0.40
2022-09-01T18:07:01.147Z,0.60
2022-09-01T18:09:31.810Z,0.40
2022-09-01T18:12:07.964Z,0.40
2022-09-01T18:14:42.591Z,0.50
2022-09-01T18:17:20.555Z,0.50
2022-09-01T18:19:58.333Z,0.63
2022-09-01T18:22:28.952Z,0.60
2022-09-01T18:25:02.209Z,0.70
2022-09-01T18:27:33.499Z,0.40
2022-09-01T18:30:02.867Z,0.60
2022-09-01T18:32:42.851Z,0.40
2022-09-01T18:35:25.637Z,0.60
2022-09-01T18:38:12.604Z,0.80
2022-09-01T18:41:02.615Z,0.75
2022-09-01T18:43:36.752Z,0.85
2022-09-01T18:46:15.202Z,0.60
2022-09-01T18:49:01.048Z,0.75
2022-09-01T18:51:47.577Z,0.80
2022-09-01T18:54:19.736Z,0.90
2022-09-01T18:56:53.934Z,0.90
2022-09-01T18:59:56.900Z,0.88
2022-09-01T19:02:39.120Z,0.55
2022-09-01T19:05:21.233Z,0.80
2022-09-01T19:07:57.381Z,0.50
2022-09-01T19:10:31.485Z,0.70
2022-09-01T19:13:09.013Z,0.50
2022-09-01T19:15:43.168Z,0.60
2022-09-01T19:18:23.757Z,0.90
2022-09-01T19:20:58.233Z,0.70
2022-09-01T19:23:36.653Z,0.60
2022-09-01T19:26:08.463Z,0.63
2022-09-01T19:28:43.163Z,0.65
2022-09-01T19:31:19.088Z,0.55
2022-09-01T19:33:50.851Z,0.70
2022-09-01T19:36:26.717Z,1.30
2022-09-01T19:38:56.171Z,0.70
2022-09-01T19:41:31.066Z,0.70
2022-09-01T19:44:08.277Z,0.80
2022-09-01T19:46:42.273Z,0.50
2022-09-01T19:49:18.977Z,0.80
2022-09-01T19:51:54.888Z,0.98
2022-09-01T19:54:28.607Z,0.75
2022-09-01T19:57:02.904Z,0.80
2022-09-01T19:59:44.024Z,1.20
2022-09-01T20:02:21.220Z,0.90
2022-09-01T20:04:57.054Z,0.63
2022-09-01T20:07:33.131Z,0.88
2022-09-01T20:10:13.711Z,0.90
2022-09-01T20:12:50.285Z,0.90
2022-09-01T20:15:24.358Z,0.75
2022-09-01T20:17:59.383Z,1.17
2022-09-01T20:20:32.470Z,1.00
2022-09-01T20:23:09.431Z,1.15
2022-09-01T20:25:42.621Z,0.80
2022-09-01T20:28:25.612Z,1.02
2022-09-01T20:31:01.096Z,0.90
2022-09-01T20:33:37.551Z,0.90
2022-09-01T20:36:10.027Z,1.48
2022-09-01T20:39:05.520Z,0.90
2022-09-01T20:41:39.607Z,1.20
2022-09-01T20:44:17.197Z,1.23
2022-09-01T20:46:47.434Z,1.20
2022-09-01T20:49:17.110Z,1.10
2022-09-01T20:51:51.847Z,1.00
2022-09-01T20:54:31.003Z,1.13
2022-09-01T20:57:09.626Z,1.20
2022-09-01T20:59:49.025Z,1.10
2022-09-01T21:02:34.974Z,1.30
2022-09-01T21:05:13.416Z,1.30
2022-09-01T21:07:50.731Z,1.10
2022-09-01T21:10:28.985Z,1.25
2022-09-01T21:13:04.507Z,1.25
2022-09-01T21:15:40.139Z,1.10
2022-09-01T21:18:22.827Z,1.40
2022-09-01T21:20:58.048Z,1.15
2022-09-01T21:23:26.443Z,1.40
2022-09-01T21:25:56.576Z,1.00
2022-09-01T21:28:26.696Z,1.20
2022-09-01T21:30:57.765Z,1.50
2022-09-01T21:33:28.713Z,1.38
2022-09-01T21:35:57.279Z,1.38
2022-09-01T21:38:25.678Z,1.50
2022-09-01T21:40:55.688Z,1.90
2022-09-01T21:43:26.717Z,1.50
2022-09-01T21:45:54.990Z,1.58
2022-09-01T21:48:23.421Z,1.40
2022-09-01T21:50:51.891Z,1.23
2022-09-01T21:53:20.406Z,1.58
2022-09-01T21:55:49.050Z,1.50
2022-09-01T21:58:18.655Z,1.40
2022-09-01T22:00:49.326Z,1.30
2022-09-01T22:03:17.762Z,1.63
2022-09-01T22:05:46.457Z,1.13
2022-09-01T22:08:16.160Z,1.13
2022-09-01T22:10:46.301Z,1.60
2022-09-01T22:13:15.930Z,1.20
2022-09-01T22:15:48.033Z,1.35
2022-09-01T22:18:17.401Z,1.15
2022-09-01T22:20:46.478Z,1.27
2022-09-01T22:23:16.532Z,1.58
2022-09-01T22:25:48.372Z,1.50
2022-09-01T22:28:17.121Z,1.17
2022-09-01T22:30:48.089Z,1.33
2022-09-01T22:33:17.672Z,1.15
2022-09-01T22:35:48.809Z,1.20
2022-09-01T22:38:17.639Z,1.30
2022-09-01T22:40:47.375Z,0.82
2022-09-01T22:43:18.413Z,1.00
2022-09-01T22:45:49.508Z,1.65
2022-09-01T22:48:19.108Z,1.70
2022-09-01T22:50:48.770Z,1.30
2022-09-01T22:53:19.306Z,1.42
2022-09-01T22:55:49.873Z,1.27
2022-09-01T22:58:18.316Z,1.27
2022-09-01T23:00:50.219Z,1.80
2022-09-01T23:03:20.841Z,1.23
2022-09-01T23:05:50.128Z,1.20
2022-09-01T23:08:19.168Z,1.40
2022-09-01T23:10:47.852Z,1.55
2022-09-01T23:13:17.361Z,1.35
2022-09-01T23:15:45.562Z,1.88
2022-09-01T23:18:15.774Z,1.77
2022-09-01T23:20:44.113Z,2.35
2022-09-01T23:23:15.108Z,1.55
2022-09-01T23:25:43.947Z,1.23
2022-09-01T23:28:12.527Z,1.30
2022-09-01T23:30:42.963Z,1.33
2022-09-01T23:33:11.125Z,1.10
2022-09-01T23:35:45.580Z,1.73
2022-09-01T23:38:18.098Z,2.03
2022-09-01T23:40:48.882Z,4.00
2022-09-01T23:43:19.456Z,3.47
2022-09-01T23:45:52.803Z,1.83
2022-09-01T23:48:21.397Z,2.58
2022-09-01T23:50:53.795Z,1.80
2022-09-01T23:53:24.096Z,2.45
2022-09-01T23:55:54.495Z,2.72
2022-09-01T23:58:24.001Z,2.30
